sensor_id;sensor_type;location;lat;lon;timestamp;pressure;altitude;pressure_sealevel;temperature;humidity
68941;BME280;55982;51.476;7.552;2022-09-09T00:02:20;99082.53;;;15.70;100.00
68941;BME280;55982;51.476;7.552;2022-09-09T00:04:57;99079.34;;;15.65;100.00
68941;BME280;55982;51.476;7.552;2022-09-09T00:07:37;99079.75;;;15.59;100.00
68941;BME280;55982;51.476;7.552;2022-09-09T00:13:42;99055.34;;;15.29;100.00
68941;BME280;55982;51.476;7.552;2022-09-09T00:16:00;99064.56;;;15.22;100.00
68941;BME280;55982;51.476;7.552;2022-09-09T00:21:37;99063.66;;;15.09;100.00
68941;BME280;55982;51.476;7.552;2022-09-09T00:24:11;99060.50;;;15.04;100.00
68941;BME280;55982;51.476;7.552;2022-09-09T00:26:48;99065.78;;;14.90;100.00
68941;BME280;55982;51.476;7.552;2022-09-09T00:31:53;99067.47;;;14.77;100.00
68941;BME280;55982;51.476;7.552;2022-09-09T00:34:24;99059.88;;;14.58;100.00
68941;BME280;55982;51.476;7.552;2022-09-09T00:36:52;99052.00;;;14.58;100.00
68941;BME280;55982;51.476;7.552;2022-09-09T00:39:27;99054.31;;;14.62;100.00
68941;BME280;55982;51.476;7.552;2022-09-09T00:42:10;99052.81;;;14.73;100.00
68941;BME280;55982;51.476;7.552;2022-09-09T00:50:05;99038.88;;;14.85;100.00
68941;BME280;55982;51.476;7.552;2022-09-09T00:57:57;99034.72;;;14.95;100.00
68941;BME280;55982;51.476;7.552;2022-09-09T01:00:29;99037.34;;;14.95;100.00
68941;BME280;55982;51.476;7.552;2022-09-09T01:05:59;99041.94;;;15.05;100.00
68941;BME280;55982;51.476;7.552;2022-09-09T01:11:01;99033.56;;;15.13;100.00
68941;BME280;55982;51.476;7.552;2022-09-09T01:13:32;99035.66;;;15.08;100.00
68941;BME280;55982;51.476;7.552;2022-09-09T01:16:03;99034.53;;;14.98;100.00
68941;BME280;55982;51.476;7.552;2022-09-09T01:18:36;99037.44;;;14.93;100.00
68941;BME280;55982;51.476;7.552;2022-09-09T01:21:20;99035.13;;;14.89;100.00
68941;BME280;55982;51.476;7.552;2022-09-09T01:26:51;99028.16;;;14.88;100.00
68941;BME280;55982;51.476;7.552;2022-09-09T01:29:19;99037.44;;;14.93;100.00
68941;BME280;55982;51.476;7.552;2022-09-09T01:31:59;99041.69;;;14.96;100.00
68941;BME280;55982;51.476;7.552;2022-09-09T01:34:28;99039.81;;;14.98;100.00
68941;BME280;55982;51.476;7.552;2022-09-09T01:37:01;99046.09;;;15.09;100.00
68941;BME280;55982;51.476;7.552;2022-09-09T01:39:27;99036.41;;;15.10;100.00
68941;BME280;55982;51.476;7.552;2022-09-09T01:41:54;99035.66;;;15.08;100.00
68941;BME280;55982;51.476;7.552;2022-09-09T01:44:21;99037.16;;;15.12;100.00
68941;BME280;55982;51.476;7.552;2022-09-09T01:46:47;99035.66;;;15.08;100.00
68941;BME280;55982;51.476;7.552;2022-09-09T01:49:12;99038.19;;;15.09;100.00
68941;BME280;55982;51.476;7.552;2022-09-09T01:51:39;99039.03;;;15.10;100.00
68941;BME280;55982;51.476;7.552;2022-09-09T01:54:06;99028.06;;;15.16;100.00
68941;BME280;55982;51.476;7.552;2022-09-09T01:56:58;99027.69;;;15.22;100.00
68941;BME280;55982;51.476;7.552;2022-09-09T01:59:55;99035.69;;;15.20;100.00
68941;BME280;55982;51.476;7.552;2022-09-09T02:02:20;99032.78;;;15.25;100.00
68941;BME280;55982;51.476;7.552;2022-09-09T02:04:49;99032.56;;;15.28;100.00
68941;BME280;55982;51.476;7.552;2022-09-09T02:09:51;99034.28;;;15.29;100.00
68941;BME280;55982;51.476;7.552;2022-09-09T02:12:20;99034.28;;;15.29;100.00
68941;BME280;55982;51.476;7.552;2022-09-09T02:14:54;99037.66;;;15.31;100.00
68941;BME280;55982;51.476;7.552;2022-09-09T02:17:32;99039.34;;;15.32;100.00
68941;BME280;55982;51.476;7.552;2022-09-09T02:20:06;99046.00;;;15.37;100.00
68941;BME280;55982;51.476;7.552;2022-09-09T02:22:34;99046.84;;;15.38;100.00
68941;BME280;55982;51.476;7.552;2022-09-09T02:25:02;99041.47;;;15.39;100.00
68941;BME280;55982;51.476;7.552;2022-09-09T02:27:30;99044.88;;;15.41;100.00
68941;BME280;55982;51.476;7.552;2022-09-09T02:29:56;99045.53;;;15.45;100.00
68941;BME280;55982;51.476;7.552;2022-09-09T02:32:25;99045.53;;;15.45;100.00
68941;BME280;55982;51.476;7.552;2022-09-09T02:34:58;99036.88;;;15.43;100.00
68941;BME280;55982;51.476;7.552;2022-09-09T02:37:28;99029.16;;;15.40;100.00
68941;BME280;55982;51.476;7.552;2022-09-09T02:39:56;99041.03;;;15.33;100.00
68941;BME280;55982;51.476;7.552;2022-09-09T02:42:22;99041.97;;;15.32;100.00
68941;BME280;55982;51.476;7.552;2022-09-09T02:44:49;99038.88;;;15.25;100.00
68941;BME280;55982;51.476;7.552;2022-09-09T02:47:30;99038.03;;;15.25;100.00
68941;BME280;55982;51.476;7.552;2022-09-09T02:55:43;99035.97;;;15.16;100.00
68941;BME280;55982;51.476;7.552;2022-09-09T02:58:15;99044.56;;;15.19;100.00
68941;BME280;55982;51.476;7.552;2022-09-09T03:00:43;99031.88;;;15.12;100.00
68941;BME280;55982;51.476;7.552;2022-09-09T03:03:09;99035.81;;;15.05;100.00
68941;BME280;55982;51.476;7.552;2022-09-09T03:05:35;99039.97;;;14.95;100.00
68941;BME280;55982;51.476;7.552;2022-09-09T03:08:01;99031.31;;;14.93;100.00
68941;BME280;55982;51.476;7.552;2022-09-09T03:10:27;99042.28;;;14.87;100.00
68941;BME280;55982;51.476;7.552;2022-09-09T03:12:52;99041.59;;;14.83;100.00
68941;BME280;55982;51.476;7.552;2022-09-09T03:15:18;99034.66;;;14.82;100.00
68941;BME280;55982;51.476;7.552;2022-09-09T03:17:43;99041.16;;;14.77;100.00
68941;BME280;55982;51.476;7.552;2022-09-09T03:20:09;99039.81;;;14.69;100.00
68941;BME280;55982;51.476;7.552;2022-09-09T03:22:35;99038.16;;;14.68;100.00
68941;BME280;55982;51.476;7.552;2022-09-09T03:25:00;99037.94;;;14.72;100.00
68941;BME280;55982;51.476;7.552;2022-09-09T03:27:28;99039.66;;;14.73;100.00
68941;BME280;55982;51.476;7.552;2022-09-09T03:29:53;99037.56;;;14.78;100.00
68941;BME280;55982;51.476;7.552;2022-09-09T03:32:19;99036.63;;;14.79;100.00
68941;BME280;55982;51.476;7.552;2022-09-09T03:34:45;99024.22;;;14.81;100.00
68941;BME280;55982;51.476;7.552;2022-09-09T03:37:15;99018.00;;;14.82;100.00
68941;BME280;55982;51.476;7.552;2022-09-09T03:39:40;99021.59;;;14.81;100.00
68941;BME280;55982;51.476;7.552;2022-09-09T03:42:05;99024.00;;;14.84;100.00
68941;BME280;55982;51.476;7.552;2022-09-09T03:44:31;99028.53;;;14.82;100.00
68941;BME280;55982;51.476;7.552;2022-09-09T03:46:56;99026.28;;;14.76;100.00
68941;BME280;55982;51.476;7.552;2022-09-09T03:49:22;99023.84;;;14.73;100.00
68941;BME280;55982;51.476;7.552;2022-09-09T03:51:48;99015.41;;;14.68;100.00
68941;BME280;55982;51.476;7.552;2022-09-09T03:54:13;99027.13;;;14.62;100.00
68941;BME280;55982;51.476;7.552;2022-09-09T03:56:38;99020.28;;;14.59;100.00
68941;BME280;55982;51.476;7.552;2022-09-09T03:59:06;99024.06;;;14.55;100.00
68941;BME280;55982;51.476;7.552;2022-09-09T04:01:34;99022.56;;;14.51;100.00
68941;BME280;55982;51.476;7.552;2022-09-09T04:03:59;99021.44;;;14.55;100.00
68941;BME280;55982;51.476;7.552;2022-09-09T04:06:25;99027.63;;;14.54;100.00
68941;BME280;55982;51.476;7.552;2022-09-09T04:08:51;99029.50;;;14.52;100.00
68941;BME280;55982;51.476;7.552;2022-09-09T04:11:18;99024.44;;;14.49;100.00
68941;BME280;55982;51.476;7.552;2022-09-09T04:13:43;99029.50;;;14.52;100.00
68941;BME280;55982;51.476;7.552;2022-09-09T04:16:10;99027.91;;;14.50;100.00
68941;BME280;55982;51.476;7.552;2022-09-09T04:18:38;99034.97;;;14.49;100.00
68941;BME280;55982;51.476;7.552;2022-09-09T04:21:04;99039.25;;;14.50;100.00
68941;BME280;55982;51.476;7.552;2022-09-09T04:23:30;99033.84;;;14.53;100.00
68941;BME280;55982;51.476;7.552;2022-09-09T04:25:57;99035.50;;;14.54;100.00
68941;BME280;55982;51.476;7.552;2022-09-09T04:28:25;99041.47;;;14.58;100.00
68941;BME280;55982;51.476;7.552;2022-09-09T04:30:51;99038.16;;;14.68;100.00
68941;BME280;55982;51.476;7.552;2022-09-09T04:33:18;99033.63;;;14.71;100.00
68941;BME280;55982;51.476;7.552;2022-09-09T04:35:46;99039.44;;;14.76;100.00
68941;BME280;55982;51.476;7.552;2022-09-09T04:38:12;99038.88;;;14.85;100.00
68941;BME280;55982;51.476;7.552;2022-09-09T04:40:37;99039.97;;;14.95;100.00
68941;BME280;55982;51.476;7.552;2022-09-09T04:43:08;99040.84;;;14.95;100.00
68941;BME280;55982;51.476;7.552;2022-09-09T04:45:34;99037.81;;;15.01;100.00
68941;BME280;55982;51.476;7.552;2022-09-09T04:48:00;99040.25;;;15.04;100.00
68941;BME280;55982;51.476;7.552;2022-09-09T04:50:27;99033.75;;;15.10;100.00
68941;BME280;55982;51.476;7.552;2022-09-09T04:52:53;99045.97;;;15.11;100.00
68941;BME280;55982;51.476;7.552;2022-09-09T04:55:19;99038.81;;;15.13;100.00
68941;BME280;55982;51.476;7.552;2022-09-09T04:57:44;99043.69;;;15.19;100.00
68941;BME280;55982;51.476;7.552;2022-09-09T05:00:10;99038.44;;;15.19;100.00
68941;BME280;55982;51.476;7.552;2022-09-09T05:02:39;99045.00;;;15.26;100.00
68941;BME280;55982;51.476;7.552;2022-09-09T05:05:05;99039.34;;;15.32;100.00
68941;BME280;55982;51.476;7.552;2022-09-09T05:07:31;99039.34;;;15.32;100.00
68941;BME280;55982;51.476;7.552;2022-09-09T05:09:57;99025.41;;;15.30;100.00
68941;BME280;55982;51.476;7.552;2022-09-09T05:12:23;99032.38;;;15.31;100.00
68941;BME280;55982;51.476;7.552;2022-09-09T05:14:51;99037.66;;;15.31;100.00
68941;BME280;55982;51.476;7.552;2022-09-09T05:17:16;99032.16;;;15.34;100.00
68941;BME280;55982;51.476;7.552;2022-09-09T05:19:41;99043.34;;;15.37;100.00
68941;BME280;55982;51.476;7.552;2022-09-09T05:22:08;99045.88;;;15.39;100.00
68941;BME280;55982;51.476;7.552;2022-09-09T05:24:33;99043.84;;;15.44;100.00
68941;BME280;55982;51.476;7.552;2022-09-09T05:26:59;99035.94;;;15.44;100.00
68941;BME280;55982;51.476;7.552;2022-09-09T05:29:26;99038.47;;;15.45;100.00
68941;BME280;55982;51.476;7.552;2022-09-09T05:31:52;99045.34;;;15.48;100.00
68941;BME280;55982;51.476;7.552;2022-09-09T05:34:18;99032.06;;;15.49;100.00
68941;BME280;55982;51.476;7.552;2022-09-09T05:36:43;99039.75;;;15.52;100.00
68941;BME280;55982;51.476;7.552;2022-09-09T05:39:08;99029.13;;;15.54;100.00
68941;BME280;55982;51.476;7.552;2022-09-09T05:41:34;99042.09;;;15.57;100.00
68941;BME280;55982;51.476;7.552;2022-09-09T05:44:01;99047.91;;;15.62;100.00
68941;BME280;55982;51.476;7.552;2022-09-09T05:46:26;99042.63;;;15.62;100.00
68941;BME280;55982;51.476;7.552;2022-09-09T05:48:52;99051.09;;;15.67;100.00
68941;BME280;55982;51.476;7.552;2022-09-09T05:51:26;99043.94;;;15.69;100.00
68941;BME280;55982;51.476;7.552;2022-09-09T05:53:53;99044.13;;;15.66;100.00
68941;BME280;55982;51.476;7.552;2022-09-09T05:56:22;99041.28;;;15.69;100.00
68941;BME280;55982;51.476;7.552;2022-09-09T05:58:49;99044.75;;;15.70;100.00
68941;BME280;55982;51.476;7.552;2022-09-09T06:01:20;99044.34;;;15.76;100.00
68941;BME280;55982;51.476;7.552;2022-09-09T06:03:47;99045.00;;;15.79;100.00
68941;BME280;55982;51.476;7.552;2022-09-09T06:06:15;99051.56;;;15.86;100.00
68941;BME280;55982;51.476;7.552;2022-09-09T06:08:43;99056.22;;;15.95;100.00
68941;BME280;55982;51.476;7.552;2022-09-09T06:11:15;99046.94;;;16.02;100.00
68941;BME280;55982;51.476;7.552;2022-09-09T06:13:41;99049.91;;;16.10;100.00
68941;BME280;55982;51.476;7.552;2022-09-09T06:16:15;99053.09;;;16.15;100.00
68941;BME280;55982;51.476;7.552;2022-09-09T06:18:41;99054.34;;;16.22;100.00
68941;BME280;55982;51.476;7.552;2022-09-09T06:21:28;99046.03;;;16.28;100.00
68941;BME280;55982;51.476;7.552;2022-09-09T06:23:55;99056.47;;;16.30;100.00
68941;BME280;55982;51.476;7.552;2022-09-09T06:26:23;99044.63;;;16.35;100.00
68941;BME280;55982;51.476;7.552;2022-09-09T06:28:50;99053.31;;;16.37;100.00
68941;BME280;55982;51.476;7.552;2022-09-09T06:31:20;99049.81;;;16.37;100.00
68941;BME280;55982;51.476;7.552;2022-09-09T06:33:49;99054.56;;;16.44;100.00
68941;BME280;55982;51.476;7.552;2022-09-09T06:36:27;99060.06;;;16.41;100.00
68941;BME280;55982;51.476;7.552;2022-09-09T06:38:53;99066.38;;;16.39;100.00
68941;BME280;55982;51.476;7.552;2022-09-09T06:41:20;99060.28;;;16.38;100.00
68941;BME280;55982;51.476;7.552;2022-09-09T06:43:46;99057.19;;;16.44;100.00
68941;BME280;55982;51.476;7.552;2022-09-09T06:46:14;99061.97;;;16.39;100.00
68941;BME280;55982;51.476;7.552;2022-09-09T06:48:40;99053.81;;;16.42;100.00
68941;BME280;55982;51.476;7.552;2022-09-09T06:51:18;99056.81;;;16.51;100.00
68941;BME280;55982;51.476;7.552;2022-09-09T06:53:45;99064.72;;;16.51;100.00
68941;BME280;55982;51.476;7.552;2022-09-09T06:58:40;99064.84;;;16.62;99.55
68941;BME280;55982;51.476;7.552;2022-09-09T07:01:10;99063.25;;;16.72;99.32
68941;BME280;55982;51.476;7.552;2022-09-09T07:03:37;99065.56;;;16.76;98.63
68941;BME280;55982;51.476;7.552;2022-09-09T07:06:03;99067.91;;;16.81;97.76
68941;BME280;55982;51.476;7.552;2022-09-09T07:08:29;99070.84;;;16.76;98.05
68941;BME280;55982;51.476;7.552;2022-09-09T07:11:04;99076.34;;;16.61;99.17
68941;BME280;55982;51.476;7.552;2022-09-09T07:13:31;99080.56;;;16.51;99.71
68941;BME280;55982;51.476;7.552;2022-09-09T07:16:12;99086.25;;;16.44;100.00
68941;BME280;55982;51.476;7.552;2022-09-09T07:18:39;99067.25;;;16.39;100.00
68941;BME280;55982;51.476;7.552;2022-09-09T07:21:06;99078.31;;;16.32;99.81
68941;BME280;55982;51.476;7.552;2022-09-09T07:23:32;99079.06;;;16.34;100.00
68941;BME280;55982;51.476;7.552;2022-09-09T07:25:58;99077.00;;;16.52;100.00
68941;BME280;55982;51.476;7.552;2022-09-09T07:28:25;99066.50;;;16.88;97.91
68941;BME280;55982;51.476;7.552;2022-09-09T07:30:59;99072.69;;;17.72;93.13
68941;BME280;55982;51.476;7.552;2022-09-09T07:33:26;99073.19;;;19.24;85.38
68941;BME280;55982;51.476;7.552;2022-09-09T07:35:52;99074.19;;;20.29;80.12
68941;BME280;55982;51.476;7.552;2022-09-09T07:38:19;99065.63;;;19.73;79.85
68941;BME280;55982;51.476;7.552;2022-09-09T07:40:45;99071.91;;;18.63;83.98
68941;BME280;55982;51.476;7.552;2022-09-09T07:43:11;99076.84;;;18.21;87.75
68941;BME280;55982;51.476;7.552;2022-09-09T07:45:37;99079.16;;;17.91;88.59
68941;BME280;55982;51.476;7.552;2022-09-09T07:48:03;99073.41;;;17.50;89.88
68941;BME280;55982;51.476;7.552;2022-09-09T07:50:28;99087.63;;;17.49;91.38
68941;BME280;55982;51.476;7.552;2022-09-09T07:52:54;99076.16;;;17.61;91.05
68941;BME280;55982;51.476;7.552;2022-09-09T07:55:20;99087.66;;;17.84;89.98
68941;BME280;55982;51.476;7.552;2022-09-09T07:57:46;99076.91;;;17.74;89.15
68941;BME280;55982;51.476;7.552;2022-09-09T08:00:12;99081.66;;;18.27;88.92
68941;BME280;55982;51.476;7.552;2022-09-09T08:02:39;99073.34;;;19.11;83.07
68941;BME280;55982;51.476;7.552;2022-09-09T08:05:05;99076.47;;;19.05;82.67
68941;BME280;55982;51.476;7.552;2022-09-09T08:07:31;99071.19;;;18.94;83.85
68941;BME280;55982;51.476;7.552;2022-09-09T08:09:56;99083.69;;;18.48;84.23
68941;BME280;55982;51.476;7.552;2022-09-09T08:12:22;99089.19;;;18.45;85.75
68941;BME280;55982;51.476;7.552;2022-09-09T08:14:48;99085.28;;;18.26;85.65
68941;BME280;55982;51.476;7.552;2022-09-09T08:17:14;99086.47;;;18.68;85.55
68941;BME280;55982;51.476;7.552;2022-09-09T08:19:39;99088.47;;;18.43;84.31
68941;BME280;55982;51.476;7.552;2022-09-09T08:22:05;99086.66;;;18.08;85.72
68941;BME280;55982;51.476;7.552;2022-09-09T08:24:30;99076.56;;;18.13;86.01
68941;BME280;55982;51.476;7.552;2022-09-09T08:26:56;99084.94;;;17.96;85.80
68941;BME280;55982;51.476;7.552;2022-09-09T08:29:22;99088.97;;;18.48;84.25
68941;BME280;55982;51.476;7.552;2022-09-09T08:31:50;99084.13;;;19.52;78.54
68941;BME280;55982;51.476;7.552;2022-09-09T08:34:16;99082.47;;;20.35;73.93
68941;BME280;55982;51.476;7.552;2022-09-09T08:36:46;99074.78;;;20.83;70.95
68941;BME280;55982;51.476;7.552;2022-09-09T08:39:16;99082.56;;;20.75;69.99
68941;BME280;55982;51.476;7.552;2022-09-09T08:58:29;99090.28;;;21.48;65.08
68941;BME280;55982;51.476;7.552;2022-09-09T09:03:56;99097.66;;;20.65;66.95
68941;BME280;55982;51.476;7.552;2022-09-09T09:09:11;99092.00;;;21.09;65.30
68941;BME280;55982;51.476;7.552;2022-09-09T09:11:49;99094.16;;;21.83;62.28
68941;BME280;55982;51.476;7.552;2022-09-09T09:14:25;99083.78;;;21.90;61.71
68941;BME280;55982;51.476;7.552;2022-09-09T09:19:23;99099.19;;;23.63;56.31
68941;BME280;55982;51.476;7.552;2022-09-09T09:22:04;99103.72;;;23.36;56.31
68941;BME280;55982;51.476;7.552;2022-09-09T09:27:13;99094.41;;;24.63;52.21
68941;BME280;55982;51.476;7.552;2022-09-09T09:29:40;99085.97;;;24.50;52.36
68941;BME280;55982;51.476;7.552;2022-09-09T09:32:10;99092.03;;;23.00;55.46
68941;BME280;55982;51.476;7.552;2022-09-09T09:34:38;99083.91;;;22.92;56.42
68941;BME280;55982;51.476;7.552;2022-09-09T09:37:14;99093.16;;;23.61;54.10
68941;BME280;55982;51.476;7.552;2022-09-09T09:39:43;99084.53;;;23.13;54.25
68941;BME280;55982;51.476;7.552;2022-09-09T09:42:12;99095.91;;;22.69;55.87
68941;BME280;55982;51.476;7.552;2022-09-09T09:44:40;99087.25;;;23.04;55.11
68941;BME280;55982;51.476;7.552;2022-09-09T09:47:06;99081.25;;;22.92;54.67
68941;BME280;55982;51.476;7.552;2022-09-09T09:49:32;99089.63;;;22.51;56.84
68941;BME280;55982;51.476;7.552;2022-09-09T09:52:02;99089.63;;;22.70;55.79
68941;BME280;55982;51.476;7.552;2022-09-09T09:54:31;99082.88;;;22.66;55.37
68941;BME280;55982;51.476;7.552;2022-09-09T09:57:11;99089.38;;;22.35;55.99
68941;BME280;55982;51.476;7.552;2022-09-09T09:59:38;99092.47;;;22.11;56.52
68941;BME280;55982;51.476;7.552;2022-09-09T10:02:17;99095.19;;;21.52;58.69
68941;BME280;55982;51.476;7.552;2022-09-09T10:04:43;99095.19;;;21.52;59.25
68941;BME280;55982;51.476;7.552;2022-09-09T10:07:19;99097.53;;;22.14;57.63
68941;BME280;55982;51.476;7.552;2022-09-09T10:09:46;99100.50;;;22.86;54.78
68941;BME280;55982;51.476;7.552;2022-09-09T10:12:19;99110.44;;;22.38;54.47
68941;BME280;55982;51.476;7.552;2022-09-09T10:14:54;99103.16;;;22.86;54.71
68941;BME280;55982;51.476;7.552;2022-09-09T10:22:50;99092.47;;;22.11;55.38
68941;BME280;55982;51.476;7.552;2022-09-09T10:28:15;99100.59;;;22.10;56.49
68941;BME280;55982;51.476;7.552;2022-09-09T10:33:10;99090.50;;;22.23;54.94
68941;BME280;55982;51.476;7.552;2022-09-09T10:44:17;99067.72;;;25.38;44.92
68941;BME280;55982;51.476;7.552;2022-09-09T10:47:17;99071.94;;;25.07;46.61
68941;BME280;55982;51.476;7.552;2022-09-09T10:55:41;99064.34;;;24.18;47.45
68941;BME280;55982;51.476;7.552;2022-09-09T10:58:12;99074.38;;;23.71;48.93
68941;BME280;55982;51.476;7.552;2022-09-09T11:00:46;99061.53;;;24.45;46.91
68941;BME280;55982;51.476;7.552;2022-09-09T11:03:21;99072.22;;;24.45;47.08
68941;BME280;55982;51.476;7.552;2022-09-09T11:05:53;99072.56;;;23.17;50.24
68941;BME280;55982;51.476;7.552;2022-09-09T11:08:25;99085.31;;;22.96;51.47
68941;BME280;55982;51.476;7.552;2022-09-09T11:11:10;99081.81;;;22.86;51.77
68941;BME280;55982;51.476;7.552;2022-09-09T11:13:57;99076.22;;;24.41;47.63
68941;BME280;55982;51.476;7.552;2022-09-09T11:16:45;99073.53;;;23.71;49.14
68941;BME280;55982;51.476;7.552;2022-09-09T11:19:26;99069.78;;;23.09;51.55
68941;BME280;55982;51.476;7.552;2022-09-09T11:21:55;99081.50;;;22.62;52.66
68941;BME280;55982;51.476;7.552;2022-09-09T11:24:40;99082.63;;;22.40;53.59
68941;BME280;55982;51.476;7.552;2022-09-09T11:38:25;99065.16;;;22.84;53.54
68941;BME280;55982;51.476;7.552;2022-09-09T11:41:02;99060.56;;;25.05;48.31
68941;BME280;55982;51.476;7.552;2022-09-09T11:46:06;99061.50;;;25.96;45.34
68941;BME280;55982;51.476;7.552;2022-09-09T11:48:41;99058.81;;;24.88;47.51
68941;BME280;55982;51.476;7.552;2022-09-09T11:53:50;99053.81;;;25.35;44.06
68941;BME280;55982;51.476;7.552;2022-09-09T11:56:42;99059.75;;;25.47;43.67
68941;BME280;55982;51.476;7.552;2022-09-09T11:59:29;99061.19;;;25.99;42.83
68941;BME280;55982;51.476;7.552;2022-09-09T12:01:59;99054.19;;;24.47;46.55
68941;BME280;55982;51.476;7.552;2022-09-09T12:04:38;99047.84;;;24.05;47.89
68941;BME280;55982;51.476;7.552;2022-09-09T12:12:34;99056.94;;;23.49;49.32
68941;BME280;55982;51.476;7.552;2022-09-09T12:15:17;99055.16;;;23.13;50.83
68941;BME280;55982;51.476;7.552;2022-09-09T12:17:46;99050.63;;;22.96;51.38
68941;BME280;55982;51.476;7.552;2022-09-09T12:26:21;99059.00;;;22.74;52.18
68941;BME280;55982;51.476;7.552;2022-09-09T12:31:44;99063.53;;;22.45;52.21
68941;BME280;55982;51.476;7.552;2022-09-09T12:34:19;99063.00;;;22.32;53.33
68941;BME280;55982;51.476;7.552;2022-09-09T12:36:55;99063.59;;;21.97;53.82
68941;BME280;55982;51.476;7.552;2022-09-09T12:39:39;99062.16;;;21.64;55.16
68941;BME280;55982;51.476;7.552;2022-09-09T12:42:39;99062.66;;;21.30;56.33
68941;BME280;55982;51.476;7.552;2022-09-09T12:45:14;99067.66;;;21.23;56.78
68941;BME280;55982;51.476;7.552;2022-09-09T12:47:49;99083.41;;;20.25;64.55
68941;BME280;55982;51.476;7.552;2022-09-09T12:50:20;99098.28;;;18.75;78.46
68941;BME280;55982;51.476;7.552;2022-09-09T12:52:47;99094.63;;;18.08;83.59
68941;BME280;55982;51.476;7.552;2022-09-09T12:55:19;99088.47;;;18.08;86.98
68941;BME280;55982;51.476;7.552;2022-09-09T12:57:46;99072.06;;;18.38;87.39
68941;BME280;55982;51.476;7.552;2022-09-09T13:00:17;99075.22;;;19.53;86.74
68941;BME280;55982;51.476;7.552;2022-09-09T13:02:54;99056.25;;;20.72;77.63
68941;BME280;55982;51.476;7.552;2022-09-09T13:05:24;99059.53;;;20.55;79.51
68941;BME280;55982;51.476;7.552;2022-09-09T13:07:50;99055.63;;;20.59;77.53
68941;BME280;55982;51.476;7.552;2022-09-09T13:10:25;99058.19;;;20.40;81.25
68941;BME280;55982;51.476;7.552;2022-09-09T13:12:52;99060.63;;;20.11;83.46
68941;BME280;55982;51.476;7.552;2022-09-09T13:15:24;99053.81;;;19.97;84.10
68941;BME280;55982;51.476;7.552;2022-09-09T13:17:57;99053.06;;;19.43;83.96
68941;BME280;55982;51.476;7.552;2022-09-09T13:20:26;99054.84;;;19.43;85.41
68941;BME280;55982;51.476;7.552;2022-09-09T13:22:53;99050.16;;;19.35;83.47
68941;BME280;55982;51.476;7.552;2022-09-09T13:27:58;99037.19;;;18.99;82.98
68941;BME280;55982;51.476;7.552;2022-09-09T13:35:35;99045.63;;;19.89;83.08
68941;BME280;55982;51.476;7.552;2022-09-09T13:38:09;99041.81;;;20.65;82.17
68941;BME280;55982;51.476;7.552;2022-09-09T13:40:35;99047.63;;;21.19;73.71
68941;BME280;55982;51.476;7.552;2022-09-09T13:43:02;99042.56;;;21.84;73.32
68941;BME280;55982;51.476;7.552;2022-09-09T13:45:28;99042.88;;;21.81;69.22
68941;BME280;55982;51.476;7.552;2022-09-09T13:47:54;99039.72;;;21.57;66.18
68941;BME280;55982;51.476;7.552;2022-09-09T13:52:49;99041.19;;;21.12;65.14
68941;BME280;55982;51.476;7.552;2022-09-09T13:55:17;99046.97;;;21.36;66.22
68941;BME280;55982;51.476;7.552;2022-09-09T13:57:59;99040.44;;;21.69;63.44
68941;BME280;55982;51.476;7.552;2022-09-09T14:00:32;99038.31;;;21.34;65.52
68941;BME280;55982;51.476;7.552;2022-09-09T14:02:59;99045.28;;;21.26;63.45
68941;BME280;55982;51.476;7.552;2022-09-09T14:05:27;99036.41;;;20.76;66.96
68941;BME280;55982;51.476;7.552;2022-09-09T14:07:53;99037.31;;;20.35;64.81
68941;BME280;55982;51.476;7.552;2022-09-09T14:10:19;99043.97;;;20.09;66.24
68941;BME280;55982;51.476;7.552;2022-09-09T14:12:44;99055.78;;;19.84;67.33
68941;BME280;55982;51.476;7.552;2022-09-09T14:15:11;99064.66;;;19.09;74.32
68941;BME280;55982;51.476;7.552;2022-09-09T14:17:37;99059.44;;;18.41;82.18
68941;BME280;55982;51.476;7.552;2022-09-09T14:20:03;99061.03;;;17.98;83.45
68941;BME280;55982;51.476;7.552;2022-09-09T14:22:33;99050.69;;;17.71;86.71
68941;BME280;55982;51.476;7.552;2022-09-09T14:24:59;99050.69;;;17.71;90.47
68941;BME280;55982;51.476;7.552;2022-09-09T14:27:24;99049.44;;;17.64;92.26
68941;BME280;55982;51.476;7.552;2022-09-09T14:29:51;99043.66;;;17.59;90.45
68941;BME280;55982;51.476;7.552;2022-09-09T14:32:17;99054.47;;;17.56;90.69
68941;BME280;55982;51.476;7.552;2022-09-09T14:34:43;99052.09;;;17.64;92.90
68941;BME280;55982;51.476;7.552;2022-09-09T14:37:08;99047.53;;;17.66;91.19
68941;BME280;55982;51.476;7.552;2022-09-09T14:39:33;99051.94;;;17.78;91.71
68941;BME280;55982;51.476;7.552;2022-09-09T14:41:58;99039.00;;;17.97;89.26
68941;BME280;55982;51.476;7.552;2022-09-09T14:44:24;99046.06;;;18.32;87.85
68941;BME280;55982;51.476;7.552;2022-09-09T14:46:49;99038.28;;;18.74;86.88
68941;BME280;55982;51.476;7.552;2022-09-09T14:49:19;99042.44;;;19.21;81.79
68941;BME280;55982;51.476;7.552;2022-09-09T14:51:44;99039.53;;;19.46;80.09
68941;BME280;55982;51.476;7.552;2022-09-09T14:54:10;99044.41;;;19.62;78.47
68941;BME280;55982;51.476;7.552;2022-09-09T14:56:36;99042.41;;;20.06;78.33
68941;BME280;55982;51.476;7.552;2022-09-09T14:59:01;99041.69;;;20.04;78.11
68941;BME280;55982;51.476;7.552;2022-09-09T15:01:28;99042.69;;;20.03;75.94
68941;BME280;55982;51.476;7.552;2022-09-09T15:04:03;99047.22;;;19.92;75.94
68941;BME280;55982;51.476;7.552;2022-09-09T15:06:30;99046.75;;;19.44;77.45
68941;BME280;55982;51.476;7.552;2022-09-09T15:08:58;99048.25;;;19.26;78.45
68941;BME280;55982;51.476;7.552;2022-09-09T15:11:27;99049.22;;;19.14;79.12
68941;BME280;55982;51.476;7.552;2022-09-09T15:13:53;99046.59;;;18.92;78.99
68941;BME280;55982;51.476;7.552;2022-09-09T15:16:21;99043.00;;;18.71;79.46
68941;BME280;55982;51.476;7.552;2022-09-09T15:18:51;99049.97;;;18.61;79.45
68941;BME280;55982;51.476;7.552;2022-09-09T15:21:19;99044.66;;;18.72;80.08